createdAt,value
2018-08-28T00:02:11.201Z,19.30
2018-08-28T00:04:39.642Z,19.50
2018-08-28T00:07:08.050Z,19.20
2018-08-28T00:09:36.449Z,19.20
2018-08-28T00:12:04.900Z,19.20
2018-08-28T00:17:01.596Z,19.20
2018-08-28T00:19:30.034Z,19.30
2018-08-28T00:21:58.476Z,19.10
2018-08-28T00:24:26.903Z,19.20
2018-08-28T00:26:55.302Z,19.00
2018-08-28T00:29:23.718Z,18.90
2018-08-28T00:31:52.108Z,19.00
2018-08-28T00:34:20.518Z,19.00
2018-08-28T00:36:48.931Z,18.90
2018-08-28T00:39:17.331Z,18.80
2018-08-28T00:41:45.776Z,18.80
2018-08-28T00:44:14.187Z,18.80
2018-08-28T00:46:42.609Z,18.80
2018-08-28T00:49:11.007Z,18.60
2018-08-28T00:51:39.416Z,18.60
2018-08-28T00:54:07.875Z,18.70
2018-08-28T00:56:36.387Z,18.60
2018-08-28T00:59:04.971Z,18.60
2018-08-28T01:01:33.378Z,18.50
2018-08-28T01:04:01.804Z,18.60
2018-08-28T01:06:30.216Z,18.60
2018-08-28T01:08:58.622Z,18.70
2018-08-28T01:11:27.026Z,18.60
2018-08-28T01:13:55.451Z,18.50
2018-08-28T01:16:23.873Z,18.50
2018-08-28T01:18:52.323Z,18.40
2018-08-28T01:21:20.749Z,18.80
2018-08-28T01:23:49.181Z,18.50
2018-08-28T01:26:17.633Z,18.40
2018-08-28T01:28:46.032Z,18.30
2018-08-28T01:31:14.449Z,18.50
2018-08-28T01:33:42.849Z,18.30
2018-08-28T01:36:11.229Z,18.10
2018-08-28T01:38:39.666Z,18.30
2018-08-28T01:41:08.053Z,18.30
2018-08-28T01:43:36.453Z,18.20
2018-08-28T01:46:04.865Z,18.20
2018-08-28T01:48:33.279Z,18.10
2018-08-28T01:51:01.709Z,18.10
2018-08-28T01:53:30.173Z,18.10
2018-08-28T01:55:58.603Z,17.90
2018-08-28T01:58:27.003Z,17.80
2018-08-28T02:00:55.383Z,17.80
2018-08-28T02:03:23.771Z,17.80
2018-08-28T02:05:52.212Z,17.80
2018-08-28T02:08:20.601Z,17.70
2018-08-28T02:10:49.005Z,17.70
2018-08-28T02:13:17.409Z,17.50
2018-08-28T02:15:45.819Z,17.50
2018-08-28T02:18:14.253Z,17.60
2018-08-28T02:20:42.689Z,17.60
2018-08-28T02:23:11.143Z,17.60
2018-08-28T02:25:39.587Z,17.60
2018-08-28T02:28:08.120Z,17.50
2018-08-28T02:30:36.613Z,17.50
2018-08-28T02:33:05.050Z,17.40
2018-08-28T02:35:33.471Z,17.40
2018-08-28T02:38:01.876Z,17.40
2018-08-28T02:40:30.309Z,17.40
2018-08-28T02:42:58.713Z,17.40
2018-08-28T02:45:27.117Z,17.50
2018-08-28T02:47:55.525Z,17.50
2018-08-28T02:50:23.912Z,17.50
2018-08-28T02:52:52.335Z,17.40
2018-08-28T02:55:20.747Z,17.40
2018-08-28T02:57:49.199Z,17.30
2018-08-28T03:00:17.643Z,17.30
2018-08-28T03:02:46.126Z,17.30
2018-08-28T03:05:14.493Z,17.20
2018-08-28T03:07:42.925Z,17.20
2018-08-28T03:10:11.392Z,17.20
2018-08-28T03:12:39.793Z,17.00
2018-08-28T03:15:08.301Z,17.10
2018-08-28T03:17:36.689Z,17.00
2018-08-28T03:20:05.178Z,16.90
2018-08-28T03:22:33.593Z,16.80
2018-08-28T03:25:02.171Z,16.80
2018-08-28T03:27:30.576Z,16.60
2018-08-28T03:29:58.996Z,16.50
2018-08-28T03:32:27.417Z,16.50
2018-08-28T03:34:55.846Z,16.40
2018-08-28T03:37:24.235Z,16.20
2018-08-28T03:42:20.922Z,16.20
2018-08-28T03:44:49.420Z,16.10
2018-08-28T03:47:17.792Z,16.10
2018-08-28T03:49:46.177Z,16.00
2018-08-28T03:52:14.604Z,16.10
2018-08-28T03:54:43.070Z,16.30
2018-08-28T03:57:11.544Z,16.30
2018-08-28T03:59:39.966Z,16.40
2018-08-28T04:02:08.358Z,16.40
2018-08-28T04:04:36.777Z,16.40
2018-08-28T04:07:05.249Z,16.30
2018-08-28T04:09:33.635Z,16.40
2018-08-28T04:12:02.081Z,16.30
2018-08-28T04:14:30.502Z,16.30
2018-08-28T04:16:58.917Z,16.20
2018-08-28T04:19:27.358Z,16.30
2018-08-28T04:24:23.925Z,16.30
2018-08-28T04:26:52.329Z,16.30
2018-08-28T04:29:20.768Z,16.30
2018-08-28T04:31:49.350Z,16.40
2018-08-28T04:34:17.767Z,16.60
2018-08-28T04:36:46.397Z,16.60
2018-08-28T04:39:14.812Z,16.70
2018-08-28T04:41:43.346Z,16.60
2018-08-28T04:44:11.799Z,16.60
2018-08-28T04:46:40.213Z,16.70
2018-08-28T04:49:08.641Z,16.70
2018-08-28T04:51:37.152Z,16.70
2018-08-28T04:54:05.899Z,16.90
2018-08-28T04:56:34.282Z,16.70
2018-08-28T04:59:02.711Z,16.80
2018-08-28T05:01:31.138Z,16.30
2018-08-28T05:03:59.522Z,16.10
2018-08-28T05:06:28.006Z,16.00
2018-08-28T05:08:56.386Z,16.10
2018-08-28T05:11:24.794Z,16.20
2018-08-28T05:13:53.212Z,16.30
2018-08-28T05:16:21.638Z,16.30
2018-08-28T05:18:50.029Z,16.70
2018-08-28T05:23:46.546Z,15.90
2018-08-28T05:26:14.978Z,16.60
2018-08-28T05:31:11.558Z,16.80
2018-08-28T05:33:39.896Z,16.90
2018-08-28T05:36:08.499Z,16.90
2018-08-28T05:38:36.948Z,17.20
2018-08-28T05:41:05.462Z,17.20
2018-08-28T05:43:33.962Z,17.20
2018-08-28T05:46:02.375Z,17.40
2018-08-28T05:48:30.804Z,17.50
2018-08-28T05:50:59.201Z,17.60
2018-08-28T05:53:27.700Z,17.70
2018-08-28T05:55:56.115Z,17.70
2018-08-28T05:58:24.769Z,17.80
2018-08-28T06:00:53.193Z,17.90
2018-08-28T06:03:21.849Z,18.00
2018-08-28T06:05:50.138Z,18.00
2018-08-28T06:08:18.586Z,18.20
2018-08-28T06:10:46.986Z,18.20
2018-08-28T06:13:15.407Z,18.10
2018-08-28T06:15:43.958Z,18.10
2018-08-28T06:18:12.450Z,18.00
2018-08-28T06:20:40.849Z,18.10
2018-08-28T06:23:10.830Z,17.90
2018-08-28T06:25:39.331Z,17.90
2018-08-28T06:28:07.804Z,17.90
2018-08-28T06:30:36.237Z,18.10
2018-08-28T06:33:04.657Z,18.10
2018-08-28T06:35:33.194Z,18.20
2018-08-28T06:38:01.759Z,18.60
2018-08-28T06:40:30.250Z,18.30
2018-08-28T06:42:58.661Z,18.30
2018-08-28T06:45:27.076Z,18.50
2018-08-28T06:47:55.475Z,18.50
2018-08-28T06:50:23.914Z,18.60
2018-08-28T06:52:52.314Z,18.70
2018-08-28T06:55:20.717Z,18.70
2018-08-28T06:57:49.109Z,18.90
2018-08-28T07:00:17.549Z,18.90
2018-08-28T07:02:46.113Z,18.90
2018-08-28T07:05:14.564Z,18.90
2018-08-28T07:07:42.969Z,18.90
2018-08-28T07:10:11.455Z,19.00
2018-08-28T07:12:39.969Z,19.10
2018-08-28T07:15:08.442Z,19.20
2018-08-28T07:17:36.898Z,19.20
2018-08-28T07:20:05.868Z,19.30
2018-08-28T07:22:34.385Z,19.30
2018-08-28T07:25:02.890Z,19.30
2018-08-28T07:27:31.969Z,19.80
2018-08-28T07:30:00.455Z,19.50
2018-08-28T07:32:28.870Z,19.70
2018-08-28T07:34:57.292Z,19.80
2018-08-28T07:37:25.728Z,19.80
2018-08-28T07:39:54.169Z,19.80
2018-08-28T07:42:22.584Z,19.80
2018-08-28T07:44:50.975Z,19.80
2018-08-28T07:47:19.381Z,19.90
2018-08-28T07:49:47.880Z,20.00
2018-08-28T07:52:16.300Z,20.10
2018-08-28T07:54:44.742Z,20.10
2018-08-28T07:57:13.161Z,20.10
2018-08-28T07:59:41.556Z,20.20
2018-08-28T08:02:09.964Z,20.30
2018-08-28T08:04:38.392Z,20.50
2018-08-28T08:07:07.233Z,20.60
2018-08-28T08:09:35.648Z,20.70
2018-08-28T08:12:04.133Z,20.90
2018-08-28T08:14:32.545Z,21.10
2018-08-28T08:17:01.004Z,21.40
2018-08-28T08:19:29.425Z,21.40
2018-08-28T08:21:57.926Z,21.60
2018-08-28T08:24:26.377Z,21.70
2018-08-28T08:26:54.779Z,21.90
2018-08-28T08:29:23.187Z,22.30
2018-08-28T08:31:51.593Z,22.60
2018-08-28T08:34:20.000Z,22.90
2018-08-28T08:36:48.464Z,23.20
2018-08-28T08:39:16.881Z,23.60
2018-08-28T08:41:45.283Z,23.90
2018-08-28T08:44:13.754Z,24.20
2018-08-28T08:46:42.160Z,24.20
2018-08-28T08:49:10.627Z,24.00
2018-08-28T08:51:39.043Z,24.10
2018-08-28T08:54:07.497Z,24.00
2018-08-28T08:56:35.902Z,24.00
2018-08-28T08:59:04.345Z,24.80
2018-08-28T09:01:32.778Z,25.40
2018-08-28T09:04:02.193Z,26.10
2018-08-28T09:06:30.706Z,26.50
2018-08-28T09:08:59.123Z,26.60
2018-08-28T09:11:27.534Z,26.00
2018-08-28T09:13:55.980Z,26.10
2018-08-28T09:16:24.398Z,26.10
2018-08-28T09:18:52.829Z,26.10
2018-08-28T09:21:21.232Z,26.30
2018-08-28T09:23:49.643Z,26.60
2018-08-28T09:26:18.084Z,26.50
2018-08-28T09:28:46.502Z,26.80
2018-08-28T09:31:14.979Z,26.70
2018-08-28T09:33:43.376Z,27.00
2018-08-28T09:36:11.822Z,27.20
2018-08-28T09:38:40.237Z,27.60
2018-08-28T09:41:08.682Z,26.50
2018-08-28T09:43:37.093Z,26.00
2018-08-28T09:46:05.784Z,26.40
2018-08-28T09:48:34.306Z,26.30
2018-08-28T09:51:02.665Z,26.00
2018-08-28T09:53:31.102Z,25.80
2018-08-28T09:55:59.510Z,26.40
2018-08-28T09:58:27.938Z,26.90
2018-08-28T10:01:01.642Z,27.00
2018-08-28T10:03:30.049Z,26.90
2018-08-28T10:05:58.434Z,27.00
2018-08-28T10:08:26.865Z,27.40
2018-08-28T10:10:55.339Z,27.70
2018-08-28T10:13:23.735Z,27.80
2018-08-28T10:15:52.137Z,28.00
2018-08-28T10:18:20.606Z,28.10
2018-08-28T10:20:49.034Z,28.20
2018-08-28T10:23:17.519Z,28.70
2018-08-28T10:25:45.990Z,28.70
2018-08-28T10:28:14.434Z,29.10
2018-08-28T10:30:42.844Z,29.60
2018-08-28T10:33:11.260Z,29.70
2018-08-28T10:38:07.999Z,29.10
2018-08-28T10:40:36.398Z,28.50
2018-08-28T10:43:04.835Z,26.90
2018-08-28T10:45:33.293Z,27.40
2018-08-28T10:48:01.707Z,27.40
2018-08-28T10:50:30.167Z,27.50
2018-08-28T10:52:58.708Z,28.60
2018-08-28T10:55:27.100Z,29.10
2018-08-28T10:57:55.491Z,29.60
2018-08-28T11:00:23.939Z,28.90
2018-08-28T11:02:52.416Z,27.60
2018-08-28T11:05:20.872Z,28.30
2018-08-28T11:07:49.293Z,29.10
2018-08-28T11:10:17.763Z,29.10
2018-08-28T11:12:46.182Z,28.60
2018-08-28T11:15:14.619Z,28.10
2018-08-28T11:17:43.018Z,28.10
2018-08-28T11:20:11.473Z,28.60
2018-08-28T11:22:39.877Z,28.30
2018-08-28T11:25:08.620Z,28.30
2018-08-28T11:27:37.088Z,28.30
2018-08-28T11:30:05.596Z,28.60
2018-08-28T11:32:34.055Z,28.90
2018-08-28T11:35:02.498Z,29.30
2018-08-28T11:37:30.903Z,28.00
2018-08-28T11:39:59.512Z,28.20
2018-08-28T11:42:27.959Z,27.80
2018-08-28T11:44:56.359Z,27.80
2018-08-28T11:47:24.773Z,27.40
2018-08-28T11:49:53.185Z,27.20
2018-08-28T11:52:21.657Z,26.50
2018-08-28T11:54:50.091Z,26.10
2018-08-28T11:57:18.563Z,25.90
2018-08-28T11:59:46.965Z,26.20
2018-08-28T12:02:15.401Z,26.90
2018-08-28T12:04:43.810Z,27.80
2018-08-28T12:07:12.483Z,28.50
2018-08-28T12:09:40.861Z,28.80
2018-08-28T12:12:09.296Z,28.50
2018-08-28T12:14:37.697Z,28.00
2018-08-28T12:17:06.177Z,28.30
2018-08-28T12:19:34.615Z,28.30
2018-08-28T12:22:03.027Z,27.60
2018-08-28T12:24:31.508Z,26.80
2018-08-28T12:26:59.948Z,26.80
2018-08-28T12:29:28.351Z,26.90
2018-08-28T12:31:56.800Z,27.40
2018-08-28T12:34:25.316Z,27.80
2018-08-28T12:36:53.857Z,27.60
2018-08-28T12:39:22.138Z,27.70
2018-08-28T12:41:50.550Z,27.50
2018-08-28T12:44:19.112Z,27.70
2018-08-28T12:46:47.537Z,27.90
2018-08-28T12:49:15.966Z,28.10
2018-08-28T12:51:44.381Z,28.00
2018-08-28T12:54:12.805Z,27.90
2018-08-28T12:56:41.264Z,27.40
2018-08-28T12:59:09.683Z,27.20
2018-08-28T13:01:38.130Z,27.10
2018-08-28T13:04:06.696Z,26.90
2018-08-28T13:06:35.115Z,26.90
2018-08-28T13:09:04.088Z,26.90
2018-08-28T13:11:32.590Z,26.80
2018-08-28T13:14:01.015Z,26.70
2018-08-28T13:16:29.479Z,26.60
2018-08-28T13:18:57.862Z,26.50
2018-08-28T13:21:26.285Z,26.50
2018-08-28T13:23:54.711Z,26.30
2018-08-28T13:26:23.119Z,26.20
2018-08-28T13:28:51.517Z,26.00
2018-08-28T13:31:19.953Z,26.00
2018-08-28T13:33:48.370Z,26.10
2018-08-28T13:36:16.756Z,26.10
2018-08-28T13:38:45.196Z,26.20
2018-08-28T13:41:13.642Z,26.30
2018-08-28T13:43:42.079Z,26.10
2018-08-28T13:46:10.576Z,26.00
2018-08-28T13:48:39.035Z,26.00
2018-08-28T13:51:07.437Z,26.10
2018-08-28T13:53:35.994Z,26.10
2018-08-28T13:56:04.406Z,26.00
2018-08-28T13:58:32.888Z,26.00
2018-08-28T14:01:01.324Z,25.90
2018-08-28T14:03:29.725Z,25.90
2018-08-28T14:05:58.150Z,25.80
2018-08-28T14:08:26.551Z,25.80
2018-08-28T14:10:54.951Z,25.70
2018-08-28T14:13:23.423Z,25.70
2018-08-28T14:15:51.873Z,25.80
2018-08-28T14:18:20.296Z,25.70
2018-08-28T14:20:48.759Z,25.80
2018-08-28T14:23:17.180Z,25.80
2018-08-28T14:25:45.614Z,25.80
2018-08-28T14:28:14.013Z,25.90
2018-08-28T14:30:42.493Z,25.90
2018-08-28T14:33:10.899Z,25.90
2018-08-28T14:35:39.458Z,25.80
2018-08-28T14:38:07.770Z,25.80
2018-08-28T14:40:36.191Z,25.90
2018-08-28T14:43:04.689Z,25.90
2018-08-28T14:45:33.169Z,25.60
2018-08-28T14:48:01.562Z,25.60
2018-08-28T14:50:30.078Z,25.60
2018-08-28T14:52:59.003Z,25.50
2018-08-28T14:55:27.462Z,25.60
2018-08-28T14:57:55.901Z,25.60
2018-08-28T15:00:24.357Z,25.60
2018-08-28T15:02:52.757Z,25.60
2018-08-28T15:05:21.165Z,25.60
2018-08-28T15:07:49.665Z,25.70
2018-08-28T15:10:18.149Z,25.70
2018-08-28T15:12:46.611Z,25.70
2018-08-28T15:15:15.099Z,25.70
2018-08-28T15:17:43.805Z,25.70
2018-08-28T15:20:12.246Z,25.70
2018-08-28T15:22:40.735Z,25.80
2018-08-28T15:25:09.248Z,25.80
2018-08-28T15:27:37.711Z,25.80
2018-08-28T15:30:06.222Z,25.80
2018-08-28T15:32:34.689Z,25.80
2018-08-28T15:35:03.150Z,25.70
2018-08-28T15:37:31.639Z,25.70
2018-08-28T15:40:00.076Z,25.60
2018-08-28T15:42:28.582Z,25.60
2018-08-28T15:44:57.023Z,25.50
2018-08-28T15:47:25.457Z,25.50
2018-08-28T15:49:53.915Z,25.50
2018-08-28T15:52:22.341Z,25.50
2018-08-28T15:54:50.806Z,25.50
2018-08-28T15:57:19.226Z,25.40
2018-08-28T15:59:47.687Z,25.40
2018-08-28T16:02:16.125Z,25.30
2018-08-28T16:04:44.651Z,25.30
2018-08-28T16:07:13.061Z,25.30
2018-08-28T16:09:41.553Z,25.30
2018-08-28T16:12:10.023Z,25.30
2018-08-28T16:14:38.445Z,25.20
2018-08-28T16:17:07.174Z,25.10
2018-08-28T16:19:35.616Z,25.10
2018-08-28T16:22:05.031Z,25.00
2018-08-28T16:24:33.488Z,24.90
2018-08-28T16:27:01.921Z,24.80
2018-08-28T16:29:30.353Z,24.80
2018-08-28T16:31:58.793Z,24.70
2018-08-28T16:34:27.248Z,24.70
2018-08-28T16:36:55.669Z,24.60
2018-08-28T16:39:24.192Z,24.50
2018-08-28T16:41:52.687Z,24.40
2018-08-28T16:44:21.187Z,24.40
2018-08-28T16:46:49.686Z,24.30
2018-08-28T16:49:18.167Z,24.20
2018-08-28T16:51:46.629Z,24.20
2018-08-28T16:54:15.059Z,24.20
2018-08-28T16:56:43.547Z,24.10
2018-08-28T16:59:11.948Z,24.20
2018-08-28T17:01:40.532Z,24.10
2018-08-28T17:04:08.819Z,24.00
2018-08-28T17:06:37.259Z,23.90
2018-08-28T17:09:06.830Z,23.60
2018-08-28T17:11:35.330Z,23.60
2018-08-28T17:14:03.932Z,23.50
2018-08-28T17:16:32.362Z,23.40
2018-08-28T17:19:00.864Z,23.40
2018-08-28T17:21:29.266Z,23.30
2018-08-28T17:23:57.746Z,23.30
2018-08-28T17:26:26.243Z,23.10
2018-08-28T17:28:54.717Z,23.10
2018-08-28T17:31:24.182Z,22.90
2018-08-28T17:33:52.864Z,22.80
2018-08-28T17:36:21.577Z,22.80
2018-08-28T17:38:50.186Z,22.50
2018-08-28T17:41:18.714Z,22.70
2018-08-28T17:43:47.228Z,22.70
2018-08-28T17:46:15.837Z,22.50
2018-08-28T17:48:44.383Z,22.40
2018-08-28T17:51:12.941Z,22.30
2018-08-28T17:53:41.418Z,22.70
2018-08-28T17:56:09.923Z,22.30
2018-08-28T17:58:38.457Z,21.90
2018-08-28T18:01:07.008Z,21.90
2018-08-28T18:03:35.675Z,21.90
2018-08-28T18:06:04.474Z,22.00
2018-08-28T18:08:32.975Z,21.80
2018-08-28T18:11:01.440Z,21.50
2018-08-28T18:15:58.785Z,21.10
2018-08-28T18:18:27.325Z,21.40
2018-08-28T18:20:55.865Z,21.20
2018-08-28T18:23:24.387Z,21.10
2018-08-28T18:25:53.281Z,21.10
2018-08-28T18:28:21.793Z,21.00
2018-08-28T18:30:50.247Z,20.80
2018-08-28T18:33:18.790Z,20.60
2018-08-28T18:35:47.366Z,20.70
2018-08-28T18:38:16.202Z,20.70
2018-08-28T18:40:46.140Z,20.60
2018-08-28T18:43:14.648Z,20.40
2018-08-28T18:45:43.451Z,20.20
2018-08-28T18:48:12.059Z,20.20
2018-08-28T18:50:40.685Z,19.90
2018-08-28T18:55:37.639Z,20.10
2018-08-28T18:58:06.526Z,20.20
2018-08-28T19:00:35.043Z,20.10
2018-08-28T19:05:32.329Z,20.30
2018-08-28T19:08:00.915Z,20.20
2018-08-28T19:10:31.585Z,19.80
2018-08-28T19:15:29.965Z,19.40
2018-08-28T19:17:59.922Z,19.50
2018-08-28T19:20:29.804Z,19.60
2018-08-28T19:22:58.683Z,19.40
2018-08-28T19:27:55.931Z,19.30
2018-08-28T19:32:58.689Z,19.10
2018-08-28T19:35:27.829Z,18.80
2018-08-28T19:37:56.609Z,18.80
2018-08-28T19:42:55.159Z,19.10
2018-08-28T19:45:25.009Z,19.10
2018-08-28T19:50:21.817Z,18.80
2018-08-28T19:52:50.754Z,18.40
2018-08-28T19:55:19.393Z,18.70
2018-08-28T19:57:47.977Z,18.40
2018-08-28T20:00:16.937Z,18.50
2018-08-28T20:02:45.494Z,18.40
2018-08-28T20:05:14.399Z,18.60
2018-08-28T20:10:11.231Z,18.50
2018-08-28T20:12:39.796Z,18.40
2018-08-28T20:17:37.264Z,18.10
2018-08-28T20:20:06.542Z,18.50
2018-08-28T20:22:35.048Z,18.00
2018-08-28T20:27:31.872Z,18.10
2018-08-28T20:32:29.269Z,17.70
2018-08-28T20:34:58.162Z,17.80
2018-08-28T20:37:26.751Z,17.40
2018-08-28T20:42:24.184Z,17.60
2018-08-28T20:44:53.680Z,17.70
2018-08-28T20:47:22.182Z,17.40
2018-08-28T20:49:50.762Z,17.50
2018-08-28T20:52:19.496Z,17.50
2018-08-28T20:54:48.066Z,17.50
2018-08-28T20:57:17.313Z,17.20
2018-08-28T20:59:46.204Z,17.20
2018-08-28T21:04:42.913Z,17.20
2018-08-28T21:07:11.446Z,16.90
2018-08-28T21:09:39.968Z,17.30
2018-08-28T21:12:08.561Z,16.70
2018-08-28T21:14:37.053Z,16.80
2018-08-28T21:17:05.731Z,16.90
2018-08-28T21:19:34.251Z,16.80
2018-08-28T21:22:02.862Z,16.40
2018-08-28T21:24:32.576Z,17.10
2018-08-28T21:27:01.092Z,16.80
2018-08-28T21:29:29.614Z,16.60
2018-08-28T21:31:58.023Z,16.60
2018-08-28T21:36:54.584Z,17.10
2018-08-28T21:39:23.091Z,16.90
2018-08-28T21:41:51.530Z,16.20
2018-08-28T21:44:20.048Z,16.50
2018-08-28T21:46:48.497Z,16.40
2018-08-28T21:51:45.111Z,16.40
2018-08-28T21:54:13.638Z,16.40
2018-08-28T21:56:42.057Z,16.50
2018-08-28T21:59:10.501Z,16.30
2018-08-28T22:04:07.147Z,16.10
2018-08-28T22:06:40.921Z,16.10
2018-08-28T22:11:37.577Z,16.20
2018-08-28T22:14:06.062Z,16.20
2018-08-28T22:16:34.547Z,15.50
2018-08-28T22:19:03.061Z,16.00
2018-08-28T22:21:31.547Z,16.10
2018-08-28T22:24:00.001Z,16.00
2018-08-28T22:28:56.530Z,15.70
2018-08-28T22:31:24.972Z,15.80
2018-08-28T22:33:53.430Z,15.50
2018-08-28T22:36:21.853Z,15.70
2018-08-28T22:41:18.405Z,15.70
2018-08-28T22:43:46.858Z,15.40
2018-08-28T22:46:15.266Z,15.40
2018-08-28T22:48:43.749Z,15.30
2018-08-28T22:51:12.196Z,13.70
2018-08-28T22:56:08.776Z,15.40
2018-08-28T22:58:37.205Z,15.20
2018-08-28T23:01:05.671Z,15.10
2018-08-28T23:03:34.164Z,15.20
2018-08-28T23:06:02.776Z,15.00
2018-08-28T23:08:31.215Z,15.00
2018-08-28T23:10:59.858Z,15.30
2018-08-28T23:13:28.409Z,14.80
2018-08-28T23:15:57.784Z,15.00
2018-08-28T23:18:26.532Z,14.80
2018-08-28T23:20:55.005Z,15.20
2018-08-28T23:23:23.453Z,14.90
2018-08-28T23:25:51.892Z,15.00
2018-08-28T23:28:20.324Z,15.10
2018-08-28T23:30:48.738Z,14.90
2018-08-28T23:33:17.152Z,14.80
2018-08-28T23:35:45.546Z,15.00
2018-08-28T23:38:13.966Z,14.60
2018-08-28T23:40:42.382Z,14.80
2018-08-28T23:43:10.778Z,14.70
2018-08-28T23:45:39.228Z,14.70
2018-08-28T23:48:07.630Z,14.80
2018-08-28T23:50:36.063Z,14.70
2018-08-28T23:53:04.496Z,14.60
2018-08-28T23:55:32.923Z,14.80
2018-08-28T23:58:01.359Z,14.20
